首页
METAR-TAF:

METAR-TAF

机场 :

佩森, 亞利桑那州, 美国

纬度: 34-15-25N, 经度: 111-20-21W, 海拔: 1572米

当前天气观测

该预报发布于15分钟前的05:35 UTC
风速5节,风向东转东南
温度 7°C
湿度 93%
气压 1023 hPa
能見度: 6.4公里
多云层高于2300英尺
多云层高于3100英尺
阴天层高于3700英尺
小雨

METAR: KPAN 080535Z AUTO 12005KT 4SM -RA BKN023 BKN031 OVC037 07/06 A3021 RMK AO2

时间: 22:50 (05:50 UTC)


TAF: 丢失

超过4000个机场的气象观测和天气预报(METAR&TAF报告)。

可查询的气象台以黄色和红色小点在地图上表示。

将鼠标移到小点上方,可查看气象台名称。

然后点击查看天气观测和预报。

如需切换地图:点击带黑十字的绿色按钮放大地图;点击带横线的绿色按钮缩小地图;或者点击绿色箭头查看邻近地区的地图。


METAR-TAF: